Terminal Aerodrome Forecast
Issued by NWS

Home | Current Version | Previous Version | Text Only | Print | Product List | Glossary Off
Versions: 1 2 3 4 5 6 7 8 9 10 11 12 13 14 15 16 17

000
FTUS43 KMPX 062336
TAFRNH
TAF
KRNH 062336Z 0700/0724 01009KT 3SM FU BKN025
     FM070200 35008KT 5SM FU SCT025 BKN100
     FM070600 34007KT 6SM FU SKC
     FM071400 01007KT 6SM FU FEW040=

USA.gov is the U.S. government's official web portal to all federal, state and local government web resources and services.